createdAt,value
2022-08-09T00:02:30.348Z,9.05
2022-08-09T00:07:44.834Z,5.25
2022-08-09T00:12:52.643Z,8.18
2022-08-09T00:18:10.678Z,5.13
2022-08-09T00:23:55.324Z,7.70
2022-08-09T00:28:39.691Z,7.10
2022-08-09T00:33:50.426Z,6.70
2022-08-09T00:38:54.596Z,9.80
2022-08-09T00:44:19.389Z,6.75
2022-08-09T00:49:20.676Z,6.03
2022-08-09T00:54:34.980Z,3.67
2022-08-09T00:59:46.371Z,5.63
2022-08-09T01:05:03.269Z,7.30
2022-08-09T01:10:28.857Z,6.70
2022-08-09T01:15:41.131Z,7.22
2022-08-09T01:21:00.638Z,7.70
2022-08-09T01:26:19.151Z,8.05
2022-08-09T01:32:32.231Z,6.25
2022-08-09T01:36:49.695Z,6.05
2022-08-09T01:41:59.833Z,3.97
2022-08-09T01:47:07.719Z,5.82
2022-08-09T01:52:17.973Z,7.63
2022-08-09T01:57:40.322Z,4.30
2022-08-09T02:02:51.668Z,4.88
2022-08-09T02:08:40.276Z,6.22
2022-08-09T02:13:37.503Z,5.30
2022-08-09T02:18:47.983Z,5.53
2022-08-09T02:23:56.387Z,4.30
2022-08-09T02:29:07.786Z,5.97
2022-08-09T02:34:26.023Z,5.38
2022-08-09T02:40:01.290Z,3.20
2022-08-09T02:45:11.714Z,3.78
2022-08-09T02:50:25.486Z,3.33
2022-08-09T02:55:46.528Z,3.45
2022-08-09T03:00:57.794Z,4.57
2022-08-09T03:06:02.880Z,4.10
2022-08-09T03:11:07.204Z,3.97
2022-08-09T03:16:14.910Z,5.13
2022-08-09T03:21:20.522Z,5.53
2022-08-09T03:26:31.878Z,3.95
2022-08-09T03:31:42.422Z,4.05
2022-08-09T03:37:02.349Z,3.45
2022-08-09T03:42:13.360Z,4.65
2022-08-09T03:47:22.285Z,3.60
2022-08-09T03:52:28.016Z,4.13
2022-08-09T03:57:30.908Z,3.40
2022-08-09T04:02:34.987Z,2.75
2022-08-09T04:07:53.153Z,3.13
2022-08-09T04:13:04.169Z,3.42
2022-08-09T04:18:07.821Z,5.00
2022-08-09T04:23:17.143Z,2.00
2022-08-09T04:28:33.570Z,4.35
2022-08-09T04:33:52.977Z,5.90
2022-08-09T04:39:04.146Z,5.32
2022-08-09T04:44:11.347Z,3.13
2022-08-09T04:49:14.985Z,3.67
2022-08-09T04:54:17.820Z,3.85
2022-08-09T04:59:21.128Z,3.08
2022-08-09T05:04:30.982Z,4.95
2022-08-09T05:09:46.724Z,2.22
2022-08-09T05:14:52.594Z,2.22
2022-08-09T05:19:57.016Z,3.15
2022-08-09T05:25:02.667Z,5.90
2022-08-09T05:30:06.737Z,2.13
2022-08-09T05:35:09.829Z,4.72
2022-08-09T05:40:13.378Z,3.47
2022-08-09T05:45:16.165Z,2.63
2022-08-09T05:50:31.205Z,3.28
2022-08-09T05:55:41.614Z,4.85
2022-08-09T06:00:44.226Z,6.55
2022-08-09T06:05:57.469Z,18.90
2022-08-09T06:11:16.457Z,17.17
2022-08-09T06:16:19.501Z,13.65
2022-08-09T06:21:22.194Z,11.38
2022-08-09T06:26:28.441Z,6.72
2022-08-09T06:31:40.187Z,3.83
2022-08-09T06:36:59.282Z,3.28
2022-08-09T06:42:11.028Z,4.57
2022-08-09T06:47:14.609Z,4.30
2022-08-09T06:52:17.736Z,4.68
2022-08-09T06:57:42.483Z,3.17
2022-08-09T07:02:44.810Z,1.45
2022-08-09T07:08:00.168Z,2.10
2022-08-09T07:13:05.320Z,4.93
2022-08-09T07:18:27.276Z,6.82
2022-08-09T07:23:36.157Z,3.13
2022-08-09T07:28:39.189Z,3.20
2022-08-09T07:34:01.809Z,1.60
2022-08-09T07:39:05.458Z,2.30
2022-08-09T07:44:15.110Z,3.03
2022-08-09T07:49:17.767Z,2.92
2022-08-09T07:54:30.121Z,2.08
2022-08-09T07:59:45.981Z,2.38
2022-08-09T08:04:56.222Z,6.82
2022-08-09T08:10:07.768Z,14.40
2022-08-09T08:15:17.659Z,6.95
2022-08-09T08:20:28.780Z,3.28
2022-08-09T08:25:44.002Z,1.83
2022-08-09T08:30:47.788Z,3.03
2022-08-09T08:35:58.929Z,3.38
2022-08-09T08:41:06.320Z,2.13
2022-08-09T08:46:33.288Z,2.80
2022-08-09T08:51:38.791Z,3.05
2022-08-09T08:56:46.308Z,3.80
2022-08-09T09:01:57.482Z,2.33
2022-08-09T09:07:08.481Z,4.57
2022-08-09T09:12:16.791Z,3.33
2022-08-09T09:17:20.968Z,8.05
2022-08-09T09:22:34.226Z,1.92
2022-08-09T09:28:05.425Z,7.68
2022-08-09T09:33:15.652Z,4.03
2022-08-09T09:38:36.298Z,3.50
2022-08-09T09:43:41.360Z,4.03
2022-08-09T09:49:08.321Z,3.70
2022-08-09T09:54:21.273Z,4.82
2022-08-09T09:59:35.841Z,6.35
2022-08-09T10:04:39.029Z,2.58
2022-08-09T10:09:54.528Z,1.30
2022-08-09T10:15:17.614Z,1.85
2022-08-09T10:20:44.691Z,2.90
2022-08-09T10:26:08.093Z,1.67
2022-08-09T10:36:37.319Z,3.55
2022-08-09T10:41:40.197Z,3.60
2022-08-09T10:48:11.875Z,2.72
2022-08-09T10:52:54.249Z,4.18
2022-08-09T10:58:00.442Z,1.67
2022-08-09T11:03:51.478Z,1.30
2022-08-09T11:08:48.009Z,2.25
2022-08-09T11:14:34.330Z,3.45
2022-08-09T11:20:11.594Z,1.33
2022-08-09T11:25:47.377Z,1.80
2022-08-09T11:30:51.029Z,2.55
2022-08-09T11:35:55.605Z,2.67
2022-08-09T11:41:03.933Z,6.80
2022-08-09T11:46:08.120Z,2.38
2022-08-09T11:52:48.465Z,4.07
2022-08-09T11:56:42.695Z,1.27
2022-08-09T12:02:17.127Z,2.45
2022-08-09T12:07:14.318Z,4.28
2022-08-09T12:12:28.764Z,1.40
2022-08-09T12:17:51.947Z,2.88
2022-08-09T12:22:58.923Z,3.20
2022-08-09T12:29:10.358Z,3.97
2022-08-09T12:33:59.278Z,1.10
2022-08-09T12:39:14.394Z,1.30
2022-08-09T12:44:17.757Z,2.45
2022-08-09T12:49:27.419Z,2.65
2022-08-09T12:56:12.119Z,3.78
2022-08-09T13:00:29.549Z,2.50
2022-08-09T13:06:13.142Z,1.67
2022-08-09T13:11:23.369Z,3.85
2022-08-09T13:16:58.970Z,4.93
2022-08-09T13:22:36.526Z,2.10
2022-08-09T13:27:54.686Z,3.50
2022-08-09T13:32:58.914Z,3.63
2022-08-09T13:38:02.772Z,2.28
2022-08-09T13:43:09.534Z,1.85
2022-08-09T13:48:14.701Z,1.25
2022-08-09T13:53:18.399Z,3.03
2022-08-09T13:58:21.157Z,2.67
2022-08-09T14:04:02.758Z,2.30
2022-08-09T14:08:47.466Z,1.98
2022-08-09T14:14:24.927Z,2.88
2022-08-09T14:19:13.075Z,4.05
2022-08-09T14:24:22.207Z,5.45
2022-08-09T14:30:24.636Z,4.30
2022-08-09T14:34:57.824Z,3.58
2022-08-09T14:40:01.236Z,1.63
2022-08-09T14:46:39.755Z,1.98
2022-08-09T14:50:34.564Z,1.75
2022-08-09T14:55:37.402Z,3.58
2022-08-09T15:00:47.976Z,3.53
2022-08-09T15:05:59.755Z,2.13
2022-08-09T15:11:07.468Z,3.47
2022-08-09T15:16:10.298Z,2.47
2022-08-09T15:21:54.744Z,4.30
2022-08-09T15:26:35.905Z,3.63
2022-08-09T15:31:48.306Z,4.80
2022-08-09T15:36:52.639Z,1.88
2022-08-09T15:41:55.300Z,4.03
2022-08-09T15:46:58.055Z,2.38
2022-08-09T15:52:04.712Z,4.38
2022-08-09T15:57:09.547Z,3.08
2022-08-09T16:02:13.196Z,2.65
2022-08-09T16:07:16.738Z,5.18
2022-08-09T16:12:20.045Z,3.67
2022-08-09T16:17:22.634Z,4.32
2022-08-09T16:22:25.730Z,5.60
2022-08-09T16:27:30.303Z,7.97
2022-08-09T16:32:54.366Z,6.20
2022-08-09T16:37:59.398Z,2.40
2022-08-09T16:43:03.134Z,9.90
2022-08-09T16:48:42.028Z,5.20
2022-08-09T16:53:32.205Z,5.07
2022-08-09T16:58:39.706Z,6.00
2022-08-09T17:03:43.452Z,6.22
2022-08-09T17:09:01.011Z,5.57
2022-08-09T17:14:25.326Z,7.97
2022-08-09T17:19:46.321Z,5.57
2022-08-09T17:25:02.832Z,2.85
2022-08-09T17:30:12.742Z,4.32
2022-08-09T17:35:16.360Z,4.57
2022-08-09T17:40:19.013Z,3.80
2022-08-09T17:45:27.186Z,4.68
2022-08-09T17:50:40.714Z,4.90
2022-08-09T17:55:56.959Z,6.10
2022-08-09T18:01:02.966Z,6.20
2022-08-09T18:06:06.637Z,5.22
2022-08-09T18:11:18.651Z,6.20
2022-08-09T18:16:30.428Z,6.82
2022-08-09T18:21:41.356Z,5.80
2022-08-09T18:26:46.205Z,10.00
2022-08-09T18:31:51.517Z,5.20
2022-08-09T18:36:59.072Z,5.63
2022-08-09T18:42:08.997Z,5.65
2022-08-09T18:47:15.944Z,5.38
2022-08-09T18:52:28.596Z,6.22
2022-08-09T18:57:38.436Z,4.28
2022-08-09T19:02:46.397Z,22.10
2022-08-09T19:08:04.298Z,10.68
2022-08-09T19:13:19.208Z,20.15
2022-08-09T19:18:34.188Z,7.55
2022-08-09T19:24:32.712Z,5.72
2022-08-09T19:29:09.768Z,7.38
2022-08-09T19:34:22.624Z,7.80
2022-08-09T19:39:43.478Z,10.18
2022-08-09T19:44:51.486Z,7.78
2022-08-09T19:50:09.277Z,8.07
2022-08-09T19:55:19.511Z,9.45
2022-08-09T20:00:28.264Z,8.02
2022-08-09T20:05:30.940Z,11.25
2022-08-09T20:10:49.139Z,9.02
2022-08-09T20:16:32.973Z,9.15
2022-08-09T20:21:15.200Z,5.43
2022-08-09T20:26:18.944Z,8.88
2022-08-09T20:31:23.293Z,11.45
2022-08-09T20:36:27.026Z,8.77
2022-08-09T20:41:35.182Z,7.15
2022-08-09T20:46:42.753Z,6.53
2022-08-09T20:51:50.630Z,6.90
2022-08-09T20:56:54.141Z,10.20
2022-08-09T21:01:56.989Z,10.15
2022-08-09T21:06:59.834Z,9.65
2022-08-09T21:18:29.568Z,6.30
2022-08-09T21:22:46.584Z,6.65
2022-08-09T21:27:52.639Z,6.40
2022-08-09T21:32:55.748Z,8.13
2022-08-09T21:38:00.745Z,5.95
2022-08-09T21:43:06.289Z,8.57
2022-08-09T21:48:09.039Z,6.47
2022-08-09T21:53:23.880Z,9.07
2022-08-09T21:58:34.694Z,7.60
2022-08-09T22:03:48.539Z,5.95
2022-08-09T22:09:01.664Z,6.25
2022-08-09T22:14:04.409Z,8.27
2022-08-09T22:19:23.958Z,6.38
2022-08-09T22:24:36.336Z,5.78
2022-08-09T22:29:48.608Z,9.18
2022-08-09T22:35:02.547Z,8.32
2022-08-09T22:40:10.550Z,11.27
2022-08-09T22:48:16.715Z,8.65
2022-08-09T22:50:53.026Z,8.68
2022-08-09T22:56:30.806Z,9.40
2022-08-09T23:01:18.707Z,7.40
2022-08-09T23:06:35.841Z,8.45
2022-08-09T23:11:39.033Z,7.15
2022-08-09T23:16:41.628Z,11.02
2022-08-09T23:21:44.350Z,7.93
2022-08-09T23:26:47.265Z,8.73
2022-08-09T23:31:54.217Z,7.57
2022-08-09T23:36:57.121Z,13.50
2022-08-09T23:42:00.162Z,11.25
2022-08-09T23:47:02.820Z,9.93
2022-08-09T23:52:05.528Z,7.32
2022-08-09T23:57:08.228Z,7.97
